Time;durP1;ratioP1;P1;durP2;ratioP2;P2;SDS_P1;SDS_P2;PMS_P1;PMS_P2;Temp;Humidity;BMP_temperature;BMP_pressure;BME280_temperature;BME280_humidity;BME280_pressure;Samples;Min_cycle;Max_cycle;Signal;HPM_P1;HPM_P2
2022/10/14 00:00:21;;;;;;;;;;;;;;;;;;5015711;28;19929;-78
2022/10/14 00:02:48;;;;;;;;;;;;;;;;;;5013244;28;19965;-78
2022/10/14 00:05:16;;;;;;;;;;;;;;;;;;5031441;28;19925;-78
2022/10/14 00:07:43;;;;;;;;;;;;;;;;;;5031310;28;19932;-78
2022/10/14 00:10:09;;;;;;;;;;;;;;;;;;5031270;28;19971;-78
2022/10/14 00:12:36;;;;;;;;;;;;;;;;;;5031403;28;20031;-78
2022/10/14 00:15:02;;;;;;;;;;;;;;;;;;5038796;28;20096;-78
2022/10/14 00:17:29;;;;;;;;;;;;;;;;;;5038195;28;19987;-78
2022/10/14 00:19:55;;;;;;;;;;;;;;;;;;5039494;28;19989;-79
2022/10/14 00:22:23;;;;;;;;;;;;;;;;;;5034964;28;19964;-78
2022/10/14 00:24:50;;;;;;;;;;;;;;;;;;5038570;28;20014;-78
2022/10/14 00:27:16;;;;;;;;;;;;;;;;;;5036677;28;19925;-78
2022/10/14 00:29:43;;;;;;;;;;;;;;;;;;5035908;28;20013;-78
2022/10/14 00:32:09;;;;;;;;;;;;;;;;;;5034105;28;20202;-79
2022/10/14 00:34:36;;;;;;;;;;;;;;;;;;5032149;28;20305;-78
2022/10/14 00:37:03;;;;;;;;;;;;;;;;;;5032156;28;19976;-78
2022/10/14 00:39:30;;;;;;;;;;;;;;;;;;5032744;28;19932;-78
2022/10/14 00:41:57;;;;;;;;;;;;;;;;;;5030820;28;20443;-78
2022/10/14 00:44:42;;;;;;;;;;;;;;;;;;5031026;28;20012;-78
2022/10/14 00:47:09;;;;;;;;;;;;;;;;;;5030601;28;20363;-78
2022/10/14 00:49:38;;;;;;;;;;;;;;;;;;5030309;28;19932;-79
2022/10/14 00:52:08;;;;;;;;;;;;;;;;;;5030076;28;20020;-78
2022/10/14 00:54:37;;;;;;;;;;;;;;;;;;5030514;28;20011;-78
2022/10/14 00:57:04;;;;;;;;;;;;;;;;;;5032933;28;19925;-78
2022/10/14 00:59:31;;;;;;;;;;;;;;;;;;5033804;28;19925;-78
2022/10/14 01:01:57;;;;;;;;;;;;;;;;;;5033223;28;19971;-78
2022/10/14 01:04:24;;;;;;;;;;;;;;;;;;5014643;28;19926;-77
2022/10/14 01:10:00;;;;;;;;;;;;;;;;;;5010974;28;19924;-77
2022/10/14 01:12:31;;;;;;;;;;;;;;;;;;5013687;28;19925;-77
2022/10/14 01:15:03;;;;;;;;;;;;;;;;;;5014208;28;19929;-75
2022/10/14 01:17:34;;;;;;;;;;;;;;;;;;5015624;28;19933;-77
2022/10/14 01:20:23;;;;;;;;;;;;;;;;;;5015255;28;19971;-77
2022/10/14 01:22:57;;;;;;;;;;;;;;;;;;5014559;28;19932;-78
2022/10/14 01:25:29;;;;;;;;;;;;;;;;;;5015011;28;20537;-77
2022/10/14 01:28:01;;;;;;;;;;;;;;;;;;5014507;28;19925;-77
2022/10/14 01:30:29;;;;;;;;;;;;;;;;;;5014286;28;20012;-78
2022/10/14 01:33:08;;;;;;;;;;;;;;;;;;5014746;28;20012;-79
2022/10/14 01:35:40;;;;;;;;;;;;;;;;;;5014540;28;19925;-78
2022/10/14 01:38:10;;;;;;;;;;;;;;;;;;5013358;28;20424;-77
2022/10/14 01:40:39;;;;;;;;;;;;;;;;;;5013025;28;19973;-77
2022/10/14 01:43:06;;;;;;;;;;;;;;;;;;5013737;28;19925;-77
2022/10/14 01:45:34;;;;;;;;;;;;;;;;;;5014699;28;19929;-76
2022/10/14 01:48:01;;;;;;;;;;;;;;;;;;5031665;28;19964;-77
2022/10/14 01:50:29;;;;;;;;;;;;;;;;;;5034672;28;20422;-78
2022/10/14 01:52:58;;;;;;;;;;;;;;;;;;5039545;28;19944;-78
2022/10/14 01:55:26;;;;;;;;;;;;;;;;;;5031768;28;19925;-77
2022/10/14 01:57:54;;;;;;;;;;;;;;;;;;5015740;28;19992;-77
2022/10/14 02:00:20;;;;;;;;;;;;;;;;;;5012943;28;20024;-78
2022/10/14 02:02:48;;;;;;;;;;;;;;;;;;5012312;28;19976;-78
2022/10/14 02:05:18;;;;;;;;;;;;;;;;;;5012366;28;20340;-77
2022/10/14 02:07:46;;;;;;;;;;;;;;;;;;5012777;28;20325;-77
2022/10/14 02:10:19;;;;;;;;;;;;;;;;;;5012688;28;19977;-77
2022/10/14 02:12:52;;;;;;;;;;;;;;;;;;5012854;28;19972;-77
2022/10/14 02:15:20;;;;;;;;;;;;;;;;;;5012925;28;20075;-75
2022/10/14 02:17:52;;;;;;;;;;;;;;;;;;5012300;28;19971;-77
2022/10/14 02:20:23;;;;;;;;;;;;;;;;;;5012284;28;19926;-77
2022/10/14 02:22:51;;;;;;;;;;;;;;;;;;5012625;28;20371;-77
2022/10/14 02:25:19;;;;;;;;;;;;;;;;;;5013017;28;20008;-78
2022/10/14 02:27:47;;;;;;;;;;;;;;;;;;5014476;28;20424;-78
2022/10/14 02:30:14;;;;;;;;;;;;;;;;;;5012617;28;19956;-78
2022/10/14 02:32:41;;;;;;;;;;;;;;;;;;5005374;28;19932;-78
2022/10/14 02:35:10;;;;;;;;;;;;;;;;;;5014876;28;19925;-78
2022/10/14 02:37:38;;;;;;;;;;;;;;;;;;5014570;28;20494;-78
2022/10/14 02:40:07;;;;;;;;;;;;;;;;;;5014547;28;19973;-78
2022/10/14 02:42:33;;;;;;;;;;;;;;;;;;5014659;28;19972;-78
2022/10/14 02:45:01;;;;;;;;;;;;;;;;;;5014657;28;19987;-78
2022/10/14 02:47:28;;;;;;;;;;;;;;;;;;5014345;28;20000;-78
2022/10/14 02:49:54;;;;;;;;;;;;;;;;;;5014926;28;20020;-78
2022/10/14 02:52:22;;;;;;;;;;;;;;;;;;5014589;28;19948;-78
2022/10/14 02:54:49;;;;;;;;;;;;;;;;;;5014463;28;20016;-78
2022/10/14 02:57:15;;;;;;;;;;;;;;;;;;5012529;28;20355;-78
2022/10/14 02:59:41;;;;;;;;;;;;;;;;;;5012298;28;20353;-78
2022/10/14 03:02:08;;;;;;;;;;;;;;;;;;5009581;28;19932;-78
2022/10/14 03:04:35;;;;;;;;;;;;;;;;;;4992445;28;19969;-78
2022/10/14 03:07:01;;;;;;;;;;;;;;;;;;4992538;28;19930;-77
2022/10/14 03:09:29;;;;;;;;;;;;;;;;;;5010518;28;19980;-78
2022/10/14 03:11:56;;;;;;;;;;;;;;;;;;5014292;28;19932;-78
2022/10/14 03:14:22;;;;;;;;;;;;;;;;;;5015177;28;19956;-78
2022/10/14 03:16:49;;;;;;;;;;;;;;;;;;5013573;28;20300;-78
2022/10/14 03:19:16;;;;;;;;;;;;;;;;;;5012228;28;19926;-78
2022/10/14 03:21:42;;;;;;;;;;;;;;;;;;5010496;28;19926;-78
2022/10/14 03:24:09;;;;;;;;;;;;;;;;;;5011701;28;20012;-77
2022/10/14 03:26:36;;;;;;;;;;;;;;;;;;5011451;28;19977;-78
2022/10/14 03:29:03;;;;;;;;;;;;;;;;;;5011522;28;20396;-77
2022/10/14 03:31:29;;;;;;;;;;;;;;;;;;5011522;28;19968;-77
2022/10/14 03:33:56;;;;;;;;;;;;;;;;;;5029167;28;19952;-78
2022/10/14 03:36:22;;;;;;;;;;;;;;;;;;5032635;28;19925;-78
2022/10/14 03:38:49;;;;;;;;;;;;;;;;;;5027718;28;19925;-78
2022/10/14 03:41:15;;;;;;;;;;;;;;;;;;5033511;28;20008;-78
2022/10/14 03:43:43;;;;;;;;;;;;;;;;;;5032736;28;20025;-78
2022/10/14 03:46:09;;;;;;;;;;;;;;;;;;5032391;28;20308;-77
2022/10/14 03:48:36;;;;;;;;;;;;;;;;;;5035212;28;20374;-77
2022/10/14 03:51:02;;;;;;;;;;;;;;;;;;5034563;28;20418;-77
2022/10/14 03:53:29;;;;;;;;;;;;;;;;;;5034969;28;19983;-76
2022/10/14 03:55:55;;;;;;;;;;;;;;;;;;5035101;28;19925;-79
2022/10/14 03:58:22;;;;;;;;;;;;;;;;;;5032816;28;19925;-77
2022/10/14 04:00:49;;;;;;;;;;;;;;;;;;5031561;28;19960;-77
2022/10/14 04:03:16;;;;;;;;;;;;;;;;;;5019702;28;19960;-77
2022/10/14 04:05:43;;;;;;;;;;;;;;;;;;5011224;28;19936;-76
2022/10/14 04:08:09;;;;;;;;;;;;;;;;;;5011330;28;20012;-77
2022/10/14 04:10:36;;;;;;;;;;;;;;;;;;5010580;28;19925;-77
2022/10/14 04:13:02;;;;;;;;;;;;;;;;;;5010984;28;19932;-77
2022/10/14 04:15:29;;;;;;;;;;;;;;;;;;5010842;28;19925;-77
2022/10/14 04:17:57;;;;;;;;;;;;;;;;;;5010715;28;20463;-77
2022/10/14 04:20:23;;;;;;;;;;;;;;;;;;5010994;28;19925;-78
2022/10/14 04:22:50;;;;;;;;;;;;;;;;;;5010667;28;19926;-77
2022/10/14 04:25:16;;;;;;;;;;;;;;;;;;5011032;28;19925;-77
2022/10/14 04:27:43;;;;;;;;;;;;;;;;;;5019848;22;19925;-75
2022/10/14 04:30:10;;;;;;;;;;;;;;;;;;5010717;28;19926;-76
2022/10/14 04:32:36;;;;;;;;;;;;;;;;;;5012125;28;20007;-75
2022/10/14 04:35:05;;;;;;;;;;;;;;;;;;5014572;28;20021;-76
2022/10/14 04:37:31;;;;;;;;;;;;;;;;;;5014953;28;20446;-74
2022/10/14 04:39:58;;;;;;;;;;;;;;;;;;5014631;28;20012;-75
2022/10/14 04:42:24;;;;;;;;;;;;;;;;;;5015108;28;20347;-75
2022/10/14 04:44:51;;;;;;;;;;;;;;;;;;5014622;28;20008;-75
2022/10/14 04:47:17;;;;;;;;;;;;;;;;;;5014344;28;19980;-74
2022/10/14 04:49:44;;;;;;;;;;;;;;;;;;5014713;28;19980;-76
2022/10/14 04:52:11;;;;;;;;;;;;;;;;;;5014312;28;20407;-75
2022/10/14 04:54:38;;;;;;;;;;;;;;;;;;5015516;28;19977;-76
2022/10/14 04:57:04;;;;;;;;;;;;;;;;;;5014846;28;19968;-75
2022/10/14 04:59:31;;;;;;;;;;;;;;;;;;5014741;28;19976;-75
2022/10/14 05:01:57;;;;;;;;;;;;;;;;;;5015139;28;19987;-76
2022/10/14 05:04:24;;;;;;;;;;;;;;;;;;5034217;28;19947;-74
2022/10/14 05:06:50;;;;;;;;;;;;;;;;;;5034051;28;19972;-77
2022/10/14 05:09:18;;;;;;;;;;;;;;;;;;5030267;22;20400;-77
2022/10/14 05:11:44;;;;;;;;;;;;;;;;;;5013738;28;20473;-76
2022/10/14 05:14:11;;;;;;;;;;;;;;;;;;5013772;28;19925;-77
2022/10/14 05:16:38;;;;;;;;;;;;;;;;;;5013812;28;19925;-77
2022/10/14 05:19:04;;;;;;;;;;;;;;;;;;5013629;28;20363;-77
2022/10/14 05:21:30;;;;;;;;;;;;;;;;;;5013322;28;20020;-76
2022/10/14 05:23:57;;;;;;;;;;;;;;;;;;5013436;28;19977;-77
2022/10/14 05:26:25;;;;;;;;;;;;;;;;;;5013681;28;19995;-76
2022/10/14 05:28:53;;;;;;;;;;;;;;;;;;5013125;28;20204;-76
2022/10/14 05:31:19;;;;;;;;;;;;;;;;;;5013111;28;19976;-76
2022/10/14 05:33:46;;;;;;;;;;;;;;;;;;5032652;28;20015;-76
2022/10/14 05:36:12;;;;;;;;;;;;;;;;;;5032834;28;20411;-76
2022/10/14 05:38:39;;;;;;;;;;;;;;;;;;5033002;28;20422;-77
2022/10/14 05:41:05;;;;;;;;;;;;;;;;;;5033112;28;19929;-77
2022/10/14 05:43:33;;;;;;;;;;;;;;;;;;5033142;28;19925;-77
2022/10/14 05:46:00;;;;;;;;;;;;;;;;;;5032863;28;20020;-76
2022/10/14 05:48:26;;;;;;;;;;;;;;;;;;5032906;28;20126;-77
2022/10/14 05:50:53;;;;;;;;;;;;;;;;;;5032317;28;20012;-77
2022/10/14 05:53:19;;;;;;;;;;;;;;;;;;5032834;28;20003;-76
2022/10/14 05:55:46;;;;;;;;;;;;;;;;;;5032712;28;19950;-77
2022/10/14 05:58:12;;;;;;;;;;;;;;;;;;5032597;28;20019;-76
2022/10/14 06:00:40;;;;;;;;;;;;;;;;;;5033088;28;20522;-78
2022/10/14 06:03:07;;;;;;;;;;;;;;;;;;5022219;28;20013;-76
2022/10/14 06:08:36;;;;;;;;;;;;;;;;;;5007282;28;20426;-75
2022/10/14 06:11:03;;;;;;;;;;;;;;;;;;5012595;28;19967;-75
2022/10/14 06:13:30;;;;;;;;;;;;;;;;;;5012949;28;19984;-75
2022/10/14 06:16:02;;;;;;;;;;;;;;;;;;5012423;28;19925;-75
2022/10/14 06:18:28;;;;;;;;;;;;;;;;;;5012566;28;19947;-75
2022/10/14 06:20:54;;;;;;;;;;;;;;;;;;5012667;28;19925;-76
2022/10/14 06:23:21;;;;;;;;;;;;;;;;;;5012795;28;19972;-76
2022/10/14 06:25:47;;;;;;;;;;;;;;;;;;5012655;28;19960;-76
2022/10/14 06:28:14;;;;;;;;;;;;;;;;;;5012288;28;20016;-76
2022/10/14 06:30:40;;;;;;;;;;;;;;;;;;5012095;28;19931;-75
2022/10/14 06:33:08;;;;;;;;;;;;;;;;;;5012460;28;20031;-76
2022/10/14 06:35:34;;;;;;;;;;;;;;;;;;5012110;28;19933;-76
2022/10/14 06:38:01;;;;;;;;;;;;;;;;;;5012042;28;19925;-76
2022/10/14 06:40:27;;;;;;;;;;;;;;;;;;5012144;28;20617;-76
2022/10/14 06:42:54;;;;;;;;;;;;;;;;;;5011905;28;19925;-76
2022/10/14 06:45:20;;;;;;;;;;;;;;;;;;5011765;28;20482;-75
2022/10/14 06:47:47;;;;;;;;;;;;;;;;;;5011946;28;20384;-76
2022/10/14 06:50:15;;;;;;;;;;;;;;;;;;5012032;28;20008;-76
2022/10/14 06:52:41;;;;;;;;;;;;;;;;;;5011798;28;19964;-75
2022/10/14 06:55:08;;;;;;;;;;;;;;;;;;5011712;28;19980;-75
2022/10/14 06:57:34;;;;;;;;;;;;;;;;;;5010915;28;19947;-76
2022/10/14 07:00:00;;;;;;;;;;;;;;;;;;5011309;28;20011;-75
2022/10/14 07:02:27;;;;;;;;;;;;;;;;;;5016212;28;20392;-76
2022/10/14 07:04:53;;;;;;;;;;;;;;;;;;5031556;28;19931;-76
2022/10/14 07:07:21;;;;;;;;;;;;;;;;;;5021273;28;19971;-76
2022/10/14 07:09:48;;;;;;;;;;;;;;;;;;5010729;28;19996;-76
2022/10/14 07:12:14;;;;;;;;;;;;;;;;;;5011419;28;20394;-75
2022/10/14 07:14:41;;;;;;;;;;;;;;;;;;5010877;28;20380;-75
2022/10/14 07:17:08;;;;;;;;;;;;;;;;;;5011189;28;20019;-75
2022/10/14 07:19:34;;;;;;;;;;;;;;;;;;5011457;28;19925;-76
2022/10/14 07:22:01;;;;;;;;;;;;;;;;;;5011436;28;19932;-76
2022/10/14 07:24:28;;;;;;;;;;;;;;;;;;5011470;28;19925;-77
2022/10/14 07:26:55;;;;;;;;;;;;;;;;;;5012627;28;20595;-77
2022/10/14 07:29:21;;;;;;;;;;;;;;;;;;5011328;28;19932;-75
2022/10/14 07:31:48;;;;;;;;;;;;;;;;;;5010932;28;19932;-75
2022/10/14 07:34:14;;;;;;;;;;;;;;;;;;5011168;28;20020;-75
2022/10/14 07:36:41;;;;;;;;;;;;;;;;;;5010738;28;20020;-76
2022/10/14 07:39:07;;;;;;;;;;;;;;;;;;5011028;28;20012;-77
2022/10/14 07:41:35;;;;;;;;;;;;;;;;;;5010357;28;20015;-76
2022/10/14 07:44:05;;;;;;;;;;;;;;;;;;5011012;28;19926;-75
2022/10/14 07:46:32;;;;;;;;;;;;;;;;;;5010556;28;19932;-76
2022/10/14 07:49:00;;;;;;;;;;;;;;;;;;5010793;28;20016;-76
2022/10/14 07:51:27;;;;;;;;;;;;;;;;;;5010591;28;20008;-76
2022/10/14 07:53:54;;;;;;;;;;;;;;;;;;5010702;28;20641;-76
2022/10/14 07:56:21;;;;;;;;;;;;;;;;;;5010827;28;20004;-76
2022/10/14 07:58:49;;;;;;;;;;;;;;;;;;5010717;28;20384;-76
2022/10/14 08:01:17;;;;;;;;;;;;;;;;;;5010438;28;19940;-76
2022/10/14 08:03:44;;;;;;;;;;;;;;;;;;5025764;28;20469;-76
2022/10/14 08:06:11;;;;;;;;;;;;;;;;;;5030144;28;20286;-76
2022/10/14 08:08:38;;;;;;;;;;;;;;;;;;5029408;28;20391;-76
2022/10/14 08:11:05;;;;;;;;;;;;;;;;;;5030329;28;19925;-76
2022/10/14 08:13:32;;;;;;;;;;;;;;;;;;5030551;28;19933;-76
2022/10/14 08:16:00;;;;;;;;;;;;;;;;;;5030096;28;19929;-76
2022/10/14 08:18:26;;;;;;;;;;;;;;;;;;5030066;28;19947;-76
2022/10/14 08:20:53;;;;;;;;;;;;;;;;;;5030001;28;19925;-77
2022/10/14 08:23:19;;;;;;;;;;;;;;;;;;5029999;28;20032;-77
2022/10/14 08:25:47;;;;;;;;;;;;;;;;;;5029772;28;19925;-77
2022/10/14 08:28:13;;;;;;;;;;;;;;;;;;5029864;28;19960;-77
2022/10/14 08:30:39;;;;;;;;;;;;;;;;;;5029695;28;20036;-78
2022/10/14 08:33:07;;;;;;;;;;;;;;;;;;5030007;28;20029;-77
2022/10/14 08:35:34;;;;;;;;;;;;;;;;;;5029926;28;20012;-76
2022/10/14 08:38:01;;;;;;;;;;;;;;;;;;5030132;28;20016;-77
2022/10/14 08:40:28;;;;;;;;;;;;;;;;;;5030010;28;20356;-77
2022/10/14 08:42:59;;;;;;;;;;;;;;;;;;5029999;28;20347;-76
2022/10/14 08:45:29;;;;;;;;;;;;;;;;;;5029610;28;20534;-77
2022/10/14 08:47:56;;;;;;;;;;;;;;;;;;5030103;28;19925;-77
2022/10/14 08:50:27;;;;;;;;;;;;;;;;;;5029991;28;19935;-77
2022/10/14 08:52:57;;;;;;;;;;;;;;;;;;5029701;28;20020;-77
2022/10/14 08:55:26;;;;;;;;;;;;;;;;;;5029848;28;19956;-77
2022/10/14 08:57:56;;;;;;;;;;;;;;;;;;5029941;28;19925;-75
2022/10/14 09:00:23;;;;;;;;;;;;;;;;;;5029773;28;19984;-78
2022/10/14 09:02:50;;;;;;;;;;;;;;;;;;5021294;28;20016;-77
2022/10/14 09:05:17;;;;;;;;;;;;;;;;;;5009969;28;19932;-77
2022/10/14 09:07:46;;;;;;;;;;;;;;;;;;5010013;28;19975;-77
2022/10/14 09:10:14;;;;;;;;;;;;;;;;;;5009898;28;20371;-77
2022/10/14 09:12:42;;;;;;;;;;;;;;;;;;5009631;28;19977;-78
2022/10/14 09:15:12;;;;;;;;;;;;;;;;;;5009662;28;19925;-77
2022/10/14 09:17:41;;;;;;;;;;;;;;;;;;5009573;28;19929;-77
2022/10/14 09:20:15;;;;;;;;;;;;;;;;;;5011881;28;20028;-77
2022/10/14 09:22:41;;;;;;;;;;;;;;;;;;5013033;28;20020;-77
2022/10/14 09:25:14;;;;;;;;;;;;;;;;;;5013269;28;20273;-78
2022/10/14 09:27:41;;;;;;;;;;;;;;;;;;5013025;28;19972;-77
2022/10/14 09:30:12;;;;;;;;;;;;;;;;;;5013250;28;20536;-77
2022/10/14 09:32:40;;;;;;;;;;;;;;;;;;5012858;28;20008;-77
2022/10/14 09:35:12;;;;;;;;;;;;;;;;;;5013454;28;19965;-78
2022/10/14 09:37:39;;;;;;;;;;;;;;;;;;5013141;28;20002;-77
2022/10/14 09:40:14;;;;;;;;;;;;;;;;;;5013361;28;19925;-77
2022/10/14 09:42:44;;;;;;;;;;;;;;;;;;5012852;28;20028;-78
2022/10/14 09:45:11;;;;;;;;;;;;;;;;;;5013174;28;20021;-78
2022/10/14 09:47:51;;;;;;;;;;;;;;;;;;5012831;28;20396;-78
2022/10/14 09:50:22;;;;;;;;;;;;;;;;;;5013461;28;19925;-78
2022/10/14 09:52:51;;;;;;;;;;;;;;;;;;5012338;28;19932;-77
2022/10/14 09:55:20;;;;;;;;;;;;;;;;;;5012920;28;20019;-76
2022/10/14 09:57:48;;;;;;;;;;;;;;;;;;5013136;28;20324;-77
2022/10/14 10:00:26;;;;;;;;;;;;;;;;;;5012763;28;19937;-78
2022/10/14 10:02:54;;;;;;;;;;;;;;;;;;5020653;28;19948;-78
2022/10/14 10:05:23;;;;;;;;;;;;;;;;;;5032313;28;19999;-77
2022/10/14 10:08:00;;;;;;;;;;;;;;;;;;5031552;28;19932;-78
2022/10/14 10:10:29;;;;;;;;;;;;;;;;;;5032457;28;19937;-78
2022/10/14 10:12:57;;;;;;;;;;;;;;;;;;5032001;28;19925;-78
2022/10/14 10:15:23;;;;;;;;;;;;;;;;;;5031642;28;20004;-79
2022/10/14 10:17:50;;;;;;;;;;;;;;;;;;5031918;28;20036;-78
2022/10/14 10:20:27;;;;;;;;;;;;;;;;;;5032207;28;19929;-77
2022/10/14 10:22:53;;;;;;;;;;;;;;;;;;5031817;28;19929;-77
2022/10/14 10:25:24;;;;;;;;;;;;;;;;;;5032050;28;20523;-78
2022/10/14 10:27:51;;;;;;;;;;;;;;;;;;5031656;28;19929;-78
2022/10/14 10:30:23;;;;;;;;;;;;;;;;;;5031484;28;20327;-77
2022/10/14 10:32:53;;;;;;;;;;;;;;;;;;5031787;28;19987;-77
2022/10/14 10:35:22;;;;;;;;;;;;;;;;;;5033432;28;20056;-76
2022/10/14 10:37:55;;;;;;;;;;;;;;;;;;5031470;28;20012;-76
2022/10/14 10:40:32;;;;;;;;;;;;;;;;;;5025691;28;19930;-76
2022/10/14 10:43:05;;;;;;;;;;;;;;;;;;5019794;28;20319;-77
2022/10/14 10:45:41;;;;;;;;;;;;;;;;;;5020962;28;20008;-77
2022/10/14 10:48:12;;;;;;;;;;;;;;;;;;5019334;28;19931;-77
2022/10/14 10:50:43;;;;;;;;;;;;;;;;;;5020189;28;20005;-77
2022/10/14 10:53:21;;;;;;;;;;;;;;;;;;5020474;28;20017;-77
2022/10/14 10:55:52;;;;;;;;;;;;;;;;;;5024848;28;20472;-77
2022/10/14 10:58:26;;;;;;;;;;;;;;;;;;5031646;28;19925;-77
2022/10/14 11:01:00;;;;;;;;;;;;;;;;;;5031501;28;19987;-77
2022/10/14 11:03:36;;;;;;;;;;;;;;;;;;5017989;28;19925;-77
2022/10/14 11:06:05;;;;;;;;;;;;;;;;;;5011408;28;19976;-77
2022/10/14 11:14:23;;;;;;;;;;;;;;;;;;5014280;28;20423;-77
2022/10/14 11:16:55;;;;;;;;;;;;;;;;;;5010051;28;19992;-77
2022/10/14 11:19:24;;;;;;;;;;;;;;;;;;5011572;28;20529;-76
2022/10/14 11:21:55;;;;;;;;;;;;;;;;;;5011054;28;19926;-76
2022/10/14 11:24:26;;;;;;;;;;;;;;;;;;5010772;28;20016;-74
2022/10/14 11:26:59;;;;;;;;;;;;;;;;;;5011348;28;20008;-75
2022/10/14 11:29:41;;;;;;;;;;;;;;;;;;5011250;28;20403;-76
2022/10/14 11:32:10;;;;;;;;;;;;;;;;;;5011221;28;19949;-76
2022/10/14 11:34:41;;;;;;;;;;;;;;;;;;5017055;28;19986;-75
2022/10/14 11:37:15;;;;;;;;;;;;;;;;;;5011074;28;19988;-76
2022/10/14 11:39:45;;;;;;;;;;;;;;;;;;5011447;28;20015;-75
2022/10/14 11:42:19;;;;;;;;;;;;;;;;;;5010187;28;20016;-75
2022/10/14 11:44:47;;;;;;;;;;;;;;;;;;5011317;28;20024;-75
2022/10/14 11:47:18;;;;;;;;;;;;;;;;;;5010635;28;19969;-76
2022/10/14 11:49:48;;;;;;;;;;;;;;;;;;5011199;28;20004;-76
2022/10/14 11:52:17;;;;;;;;;;;;;;;;;;5010534;28;19932;-75
2022/10/14 11:54:45;;;;;;;;;;;;;;;;;;5010908;28;19925;-76
2022/10/14 11:57:14;;;;;;;;;;;;;;;;;;5010480;28;19929;-76
2022/10/14 11:59:45;;;;;;;;;;;;;;;;;;5010929;28;19926;-76
2022/10/14 12:02:20;;;;;;;;;;;;;;;;;;5012990;28;19980;-75
2022/10/14 12:04:49;;;;;;;;;;;;;;;;;;5030028;28;20304;-75
2022/10/14 12:07:17;;;;;;;;;;;;;;;;;;5029765;28;20387;-76
2022/10/14 12:09:46;;;;;;;;;;;;;;;;;;5030235;28;19925;-76
2022/10/14 12:12:14;;;;;;;;;;;;;;;;;;5031019;28;20021;-76
2022/10/14 12:14:43;;;;;;;;;;;;;;;;;;5030942;28;19932;-75
2022/10/14 12:17:15;;;;;;;;;;;;;;;;;;5030320;28;20424;-79
2022/10/14 12:19:44;;;;;;;;;;;;;;;;;;5029892;28;19929;-76
2022/10/14 12:22:14;;;;;;;;;;;;;;;;;;5030167;28;20020;-75
2022/10/14 12:24:43;;;;;;;;;;;;;;;;;;5030408;28;19925;-75
2022/10/14 12:27:10;;;;;;;;;;;;;;;;;;5029943;28;20477;-76
2022/10/14 12:29:40;;;;;;;;;;;;;;;;;;5030250;28;19972;-76
2022/10/14 12:32:08;;;;;;;;;;;;;;;;;;5030026;28;19925;-75
2022/10/14 12:34:36;;;;;;;;;;;;;;;;;;5030098;28;19933;-76
2022/10/14 12:37:30;;;;;;;;;;;;;;;;;;5029939;28;20450;-75
2022/10/14 12:40:21;;;;;;;;;;;;;;;;;;4994631;28;19932;-75
2022/10/14 12:42:57;;;;;;;;;;;;;;;;;;5029807;28;19968;-75
2022/10/14 12:45:24;;;;;;;;;;;;;;;;;;5030166;28;19932;-75
2022/10/14 12:48:01;;;;;;;;;;;;;;;;;;5029464;28;19932;-75
2022/10/14 12:50:29;;;;;;;;;;;;;;;;;;5030168;28;20016;-76
2022/10/14 12:52:57;;;;;;;;;;;;;;;;;;5029350;28;20388;-77
2022/10/14 12:55:27;;;;;;;;;;;;;;;;;;5032566;28;19932;-76
2022/10/14 12:57:55;;;;;;;;;;;;;;;;;;5033664;28;19931;-76
2022/10/14 13:00:28;;;;;;;;;;;;;;;;;;5033629;28;19935;-75
2022/10/14 13:02:56;;;;;;;;;;;;;;;;;;5025124;28;20299;-76
2022/10/14 13:05:27;;;;;;;;;;;;;;;;;;5013944;28;20016;-76
2022/10/14 13:08:09;;;;;;;;;;;;;;;;;;5013617;28;20008;-76
2022/10/14 13:10:46;;;;;;;;;;;;;;;;;;5014218;28;20016;-76
2022/10/14 13:13:31;;;;;;;;;;;;;;;;;;5013825;28;19933;-77
2022/10/14 13:15:59;;;;;;;;;;;;;;;;;;5013952;28;19987;-76
2022/10/14 13:18:32;;;;;;;;;;;;;;;;;;5013611;28;19925;-76
2022/10/14 13:20:58;;;;;;;;;;;;;;;;;;5013768;28;20017;-77
2022/10/14 13:23:33;;;;;;;;;;;;;;;;;;5013530;28;20016;-76
2022/10/14 13:26:08;;;;;;;;;;;;;;;;;;5013987;28;19925;-76
2022/10/14 13:28:36;;;;;;;;;;;;;;;;;;5013411;28;20015;-76
2022/10/14 13:31:08;;;;;;;;;;;;;;;;;;5013323;28;20020;-76
2022/10/14 13:33:37;;;;;;;;;;;;;;;;;;5012093;28;19951;-77
2022/10/14 13:36:08;;;;;;;;;;;;;;;;;;5013598;28;20013;-76
2022/10/14 13:38:35;;;;;;;;;;;;;;;;;;5013306;28;19964;-76
2022/10/14 13:41:02;;;;;;;;;;;;;;;;;;5013480;28;19925;-76
2022/10/14 13:43:32;;;;;;;;;;;;;;;;;;5013284;28;19964;-76
2022/10/14 13:46:02;;;;;;;;;;;;;;;;;;5013126;28;20353;-76
2022/10/14 13:48:32;;;;;;;;;;;;;;;;;;5013222;28;19925;-75
2022/10/14 13:51:07;;;;;;;;;;;;;;;;;;5012197;28;20392;-75
2022/10/14 13:53:33;;;;;;;;;;;;;;;;;;5012180;28;20020;-75
2022/10/14 13:56:00;;;;;;;;;;;;;;;;;;5013236;28;19925;-76
2022/10/14 13:58:26;;;;;;;;;;;;;;;;;;5012870;28;19926;-76
2022/10/14 14:00:59;;;;;;;;;;;;;;;;;;5012898;28;19931;-76
2022/10/14 14:03:29;;;;;;;;;;;;;;;;;;5025549;28;19925;-76
2022/10/14 14:05:58;;;;;;;;;;;;;;;;;;5032185;28;19965;-75
2022/10/14 14:08:25;;;;;;;;;;;;;;;;;;5032669;28;19925;-76
2022/10/14 14:10:53;;;;;;;;;;;;;;;;;;5032391;28;20056;-76
2022/10/14 14:13:20;;;;;;;;;;;;;;;;;;5032419;28;19980;-76
2022/10/14 14:15:49;;;;;;;;;;;;;;;;;;5032733;28;19931;-76
2022/10/14 14:18:29;;;;;;;;;;;;;;;;;;5032045;28;19925;-75
2022/10/14 14:20:58;;;;;;;;;;;;;;;;;;5032238;28;20451;-75
2022/10/14 14:23:24;;;;;;;;;;;;;;;;;;5032051;28;19960;-78
2022/10/14 14:25:51;;;;;;;;;;;;;;;;;;5032343;28;20372;-75
2022/10/14 14:28:18;;;;;;;;;;;;;;;;;;5032474;28;19925;-75
2022/10/14 14:30:48;;;;;;;;;;;;;;;;;;5014432;28;20012;-75
2022/10/14 14:33:16;;;;;;;;;;;;;;;;;;5012581;28;20016;-76
2022/10/14 14:35:50;;;;;;;;;;;;;;;;;;5012341;28;20151;-77
2022/10/14 14:38:25;;;;;;;;;;;;;;;;;;5012240;28;19936;-77
2022/10/14 14:41:00;;;;;;;;;;;;;;;;;;5012188;28;19973;-76
2022/10/14 14:43:26;;;;;;;;;;;;;;;;;;5011936;28;20422;-77
2022/10/14 14:45:53;;;;;;;;;;;;;;;;;;5012721;28;19948;-78
2022/10/14 14:48:19;;;;;;;;;;;;;;;;;;5013035;28;19948;-78
2022/10/14 14:50:47;;;;;;;;;;;;;;;;;;5017465;28;20028;-78
2022/10/14 14:53:16;;;;;;;;;;;;;;;;;;5018178;28;19937;-78
2022/10/14 14:55:45;;;;;;;;;;;;;;;;;;5030294;28;19944;-74
2022/10/14 14:58:24;;;;;;;;;;;;;;;;;;5039288;28;19909;-75
2022/10/14 15:00:53;;;;;;;;;;;;;;;;;;5039035;28;19923;-75
2022/10/14 15:03:20;;;;;;;;;;;;;;;;;;5028359;28;20253;-75
2022/10/14 15:05:51;;;;;;;;;;;;;;;;;;5015749;28;20016;-77
2022/10/14 15:08:20;;;;;;;;;;;;;;;;;;5014045;28;20033;-77
2022/10/14 15:10:49;;;;;;;;;;;;;;;;;;5014743;28;20020;-77
2022/10/14 15:13:25;;;;;;;;;;;;;;;;;;5016311;28;19925;-78
2022/10/14 15:15:52;;;;;;;;;;;;;;;;;;5015564;28;19950;-78
2022/10/14 15:18:20;;;;;;;;;;;;;;;;;;5014677;28;19926;-78
2022/10/14 15:20:46;;;;;;;;;;;;;;;;;;5012810;28;19929;-78
2022/10/14 15:23:32;;;;;;;;;;;;;;;;;;5012479;28;19929;-77
2022/10/14 15:26:00;;;;;;;;;;;;;;;;;;5011922;28;19964;-78
2022/10/14 15:28:30;;;;;;;;;;;;;;;;;;5011782;28;19980;-79
2022/10/14 15:30:56;;;;;;;;;;;;;;;;;;5012196;28;19941;-79
2022/10/14 15:33:24;;;;;;;;;;;;;;;;;;5013032;28;19948;-77
2022/10/14 15:35:54;;;;;;;;;;;;;;;;;;5019296;28;19926;-75
2022/10/14 15:38:20;;;;;;;;;;;;;;;;;;5035047;28;19956;-76
2022/10/14 15:40:47;;;;;;;;;;;;;;;;;;5031782;28;19926;-75
2022/10/14 15:43:16;;;;;;;;;;;;;;;;;;5031147;28;20001;-75
2022/10/14 15:45:43;;;;;;;;;;;;;;;;;;5033066;28;19957;-75
2022/10/14 15:48:15;;;;;;;;;;;;;;;;;;5031529;28;19965;-77
2022/10/14 15:50:43;;;;;;;;;;;;;;;;;;5019357;28;20372;-76
2022/10/14 15:53:10;;;;;;;;;;;;;;;;;;5013015;28;19925;-77
2022/10/14 15:55:36;;;;;;;;;;;;;;;;;;5011350;28;19933;-77
2022/10/14 15:58:04;;;;;;;;;;;;;;;;;;5011211;28;20374;-77
2022/10/14 16:00:32;;;;;;;;;;;;;;;;;;5011297;28;19925;-77
2022/10/14 16:02:58;;;;;;;;;;;;;;;;;;5010715;28;20015;-76
2022/10/14 16:05:25;;;;;;;;;;;;;;;;;;5011065;28;19929;-77
2022/10/14 16:07:52;;;;;;;;;;;;;;;;;;5011327;28;19926;-77
2022/10/14 16:10:19;;;;;;;;;;;;;;;;;;5011353;28;20415;-77
2022/10/14 16:12:46;;;;;;;;;;;;;;;;;;5011308;28;19937;-77
2022/10/14 16:15:19;;;;;;;;;;;;;;;;;;5010800;28;19925;-77
2022/10/14 16:17:47;;;;;;;;;;;;;;;;;;5011826;28;19926;-77
2022/10/14 16:20:13;;;;;;;;;;;;;;;;;;5012474;28;19980;-77
2022/10/14 16:22:40;;;;;;;;;;;;;;;;;;5012253;28;19981;-77
2022/10/14 16:25:07;;;;;;;;;;;;;;;;;;5012479;28;19979;-76
2022/10/14 16:27:33;;;;;;;;;;;;;;;;;;5012373;28;19932;-77
2022/10/14 16:30:00;;;;;;;;;;;;;;;;;;5014785;28;20012;-75
2022/10/14 16:32:26;;;;;;;;;;;;;;;;;;5014335;28;20348;-76
2022/10/14 16:34:54;;;;;;;;;;;;;;;;;;5014590;28;20312;-77
2022/10/14 16:37:20;;;;;;;;;;;;;;;;;;5014787;28;19925;-76
2022/10/14 16:39:48;;;;;;;;;;;;;;;;;;5014630;28;20064;-77
2022/10/14 16:42:15;;;;;;;;;;;;;;;;;;5014497;28;19926;-77
2022/10/14 16:44:42;;;;;;;;;;;;;;;;;;5014534;28;19933;-77
2022/10/14 16:47:18;;;;;;;;;;;;;;;;;;5014086;28;19925;-77
2022/10/14 16:49:45;;;;;;;;;;;;;;;;;;5014862;28;19932;-76
2022/10/14 16:52:14;;;;;;;;;;;;;;;;;;5014079;28;20015;-76
2022/10/14 16:54:40;;;;;;;;;;;;;;;;;;5014232;28;19926;-76
2022/10/14 16:57:07;;;;;;;;;;;;;;;;;;5013960;28;20361;-76
2022/10/14 16:59:34;;;;;;;;;;;;;;;;;;5014393;28;19967;-77
2022/10/14 17:02:00;;;;;;;;;;;;;;;;;;5016649;28;20007;-76
2022/10/14 17:04:27;;;;;;;;;;;;;;;;;;5034660;28;19925;-77
2022/10/14 17:06:53;;;;;;;;;;;;;;;;;;5033724;28;19983;-76